MSC Athos — 9HA4026 — position and weather

sailwx.info

Track history (hours):
 
Tides and Currents Weather Stations Pressure Air Temp Water Temp Dewpoint Dewpoint Depression Visibility Wind Speed Wind Dir Waves Ship Positions

MSC Athos

Last reported at 2017-Sep-26 09:56 UTC. Time now 2017-Sep-26 11:11 UTC.
Position N 37°45' W 000°20'.

Length 300 m; draft 10.5 m.

Type: Ship (hazmat cat D). MMSI: 256871000.

Date/timePositionNaut miles runAvg speedWind from/ knotsBaromVisibWave heightAir tempDewpointWater temp
2017-Sep-26 09:56N 37°45' W 000°20'921.3
2017-Sep-26 09:30N 37°38' W 000°27'1121.1
2017-Sep-26 08:59N 37°29' W 000°36'1021.3
2017-Sep-26 08:30N 37°22' W 000°46'1121.1
2017-Sep-26 07:59N 37°15' W 000°56'21921.1
2017-Sep-25 21:36N 35°58' W 005°12'221.1
2017-Sep-25 21:30N 35°58' W 005°14'714.4
2017-Sep-25 21:01N 35°59' W 005°23'714.5
2017-Sep-25 20:30N 35°57' W 005°32'13620.0
2017-Sep-25 13:43N 35°54' W 008°20'521.9
2017-Sep-25 13:30N 35°54' W 008°25'1622.3
2017-Sep-25 12:47N 35°54' W 008°45'922.3
2017-Sep-25 12:22N 35°54' W 008°57'921.9
2017-Sep-25 11:57N 35°54' W 009°08'1021.9
2017-Sep-25 11:30N 35°54' W 009°20'1121.7
2017-Sep-25 11:00N 35°54' W 009°33'1121.6
2017-Sep-25 10:30N 35°54' W 009°46'1121.8
2017-Sep-25 10:00N 35°54' W 009°60'1221.6
2017-Sep-25 09:27N 35°54' W 010°15'67921.5
2017-Sep-24 01:52N 35°29' W 024°10'822.1
2017-Sep-24 01:30N 35°28' W 024°19'1122.0
2017-Sep-24 01:00N 35°28' W 024°33'1121.9
2017-Sep-24 00:30N 35°27' W 024°46'1522.0
2017-Sep-23 23:50N 35°25' W 025°04'722.1
2017-Sep-23 23:30N 35°24' W 025°13'1221.6
2017-Sep-23 22:56N 35°22' W 025°28'  
Track history (hours):
 
Tides and Currents Weather Stations Pressure Air Temp Water Temp Dewpoint Dewpoint Depression Visibility Wind Speed Wind Dir Waves Ship Positions

MSC Athos

Last reported at 2017-Sep-26 09:56 UTC. Time now 2017-Sep-26 11:11 UTC.
Position N 37°45' W 000°20'.

Length 300 m; draft 10.5 m.

Type: Ship (hazmat cat D). MMSI: 256871000.

Date/timePositionNaut miles runAvg speedWind from/ knotsBaromVisibWave heightAir tempDewpointWater temp
2017-Sep-26 09:56N 37°45' W 000°20'921.3
2017-Sep-26 09:30N 37°38' W 000°27'1121.1
2017-Sep-26 08:59N 37°29' W 000°36'1021.3
2017-Sep-26 08:30N 37°22' W 000°46'1121.1
2017-Sep-26 07:59N 37°15' W 000°56'21921.1
2017-Sep-25 21:36N 35°58' W 005°12'221.1
2017-Sep-25 21:30N 35°58' W 005°14'714.4
2017-Sep-25 21:01N 35°59' W 005°23'714.5
2017-Sep-25 20:30N 35°57' W 005°32'13620.0
2017-Sep-25 13:43N 35°54' W 008°20'521.9
2017-Sep-25 13:30N 35°54' W 008°25'1622.3
2017-Sep-25 12:47N 35°54' W 008°45'922.3
2017-Sep-25 12:22N 35°54' W 008°57'921.9
2017-Sep-25 11:57N 35°54' W 009°08'1021.9
2017-Sep-25 11:30N 35°54' W 009°20'1121.7
2017-Sep-25 11:00N 35°54' W 009°33'1121.6
2017-Sep-25 10:30N 35°54' W 009°46'1121.8
2017-Sep-25 10:00N 35°54' W 009°60'1221.6
2017-Sep-25 09:27N 35°54' W 010°15'67921.5
2017-Sep-24 01:52N 35°29' W 024°10'822.1
2017-Sep-24 01:30N 35°28' W 024°19'1122.0
2017-Sep-24 01:00N 35°28' W 024°33'1121.9
2017-Sep-24 00:30N 35°27' W 024°46'1522.0
2017-Sep-23 23:50N 35°25' W 025°04'722.1
2017-Sep-23 23:30N 35°24' W 025°13'1221.6
2017-Sep-23 22:56N 35°22' W 025°28'  

Dump ship's entire track history